sensor_id;sensor_type;location;lat;lon;timestamp;pressure;altitude;pressure_sealevel;temperature;humidity
28797;BME280;24974;54.444;18.560;2023-02-02T00:01:55;69377.22;;;-146.27;100.00
28797;BME280;24974;54.444;18.560;2023-02-02T00:04:31;69377.22;;;-146.27;100.00
28797;BME280;24974;54.444;18.560;2023-02-02T00:07:02;69377.22;;;-146.27;100.00
28797;BME280;24974;54.444;18.560;2023-02-02T00:09:34;69377.22;;;-146.27;100.00
28797;BME280;24974;54.444;18.560;2023-02-02T00:12:05;69377.22;;;-146.27;100.00
28797;BME280;24974;54.444;18.560;2023-02-02T00:14:36;69377.22;;;-146.27;100.00
28797;BME280;24974;54.444;18.560;2023-02-02T00:17:09;69377.22;;;-146.27;100.00
28797;BME280;24974;54.444;18.560;2023-02-02T00:19:40;69377.22;;;-146.27;100.00
28797;BME280;24974;54.444;18.560;2023-02-02T00:22:11;69377.22;;;-146.27;100.00
28797;BME280;24974;54.444;18.560;2023-02-02T00:24:42;69377.22;;;-146.27;100.00
28797;BME280;24974;54.444;18.560;2023-02-02T00:27:12;69377.22;;;-146.27;100.00
28797;BME280;24974;54.444;18.560;2023-02-02T00:29:43;69377.22;;;-146.27;100.00
28797;BME280;24974;54.444;18.560;2023-02-02T00:32:15;69377.22;;;-146.27;100.00
28797;BME280;24974;54.444;18.560;2023-02-02T00:34:47;69377.22;;;-146.27;100.00
28797;BME280;24974;54.444;18.560;2023-02-02T00:37:18;69377.22;;;-146.27;100.00
28797;BME280;24974;54.444;18.560;2023-02-02T00:39:48;69377.22;;;-146.27;100.00
28797;BME280;24974;54.444;18.560;2023-02-02T00:42:19;69377.22;;;-146.27;100.00
28797;BME280;24974;54.444;18.560;2023-02-02T00:44:50;69377.22;;;-146.27;100.00
28797;BME280;24974;54.444;18.560;2023-02-02T05:53:54;69377.22;;;-146.27;100.00
28797;BME280;24974;54.444;18.560;2023-02-02T05:56:25;69377.22;;;-146.27;100.00
28797;BME280;24974;54.444;18.560;2023-02-02T05:58:56;69377.22;;;-146.27;100.00
28797;BME280;24974;54.444;18.560;2023-02-02T06:01:26;69377.22;;;-146.27;100.00
28797;BME280;24974;54.444;18.560;2023-02-02T06:03:57;69377.22;;;-146.27;100.00
28797;BME280;24974;54.444;18.560;2023-02-02T06:06:28;69377.22;;;-146.27;100.00
28797;BME280;24974;54.444;18.560;2023-02-02T06:09:00;69377.22;;;-146.27;100.00
28797;BME280;24974;54.444;18.560;2023-02-02T06:11:31;69377.22;;;-146.27;100.00
28797;BME280;24974;54.444;18.560;2023-02-02T06:14:02;69377.22;;;-146.27;100.00
28797;BME280;24974;54.444;18.560;2023-02-02T06:16:33;69377.22;;;-146.27;100.00
28797;BME280;24974;54.444;18.560;2023-02-02T06:19:04;69377.22;;;-146.27;100.00
28797;BME280;24974;54.444;18.560;2023-02-02T06:21:35;69377.22;;;-146.27;100.00
28797;BME280;24974;54.444;18.560;2023-02-02T06:24:06;69377.22;;;-146.27;100.00
28797;BME280;24974;54.444;18.560;2023-02-02T06:26:37;69377.22;;;-146.27;100.00
28797;BME280;24974;54.444;18.560;2023-02-02T06:29:11;69377.22;;;-146.27;100.00
28797;BME280;24974;54.444;18.560;2023-02-02T06:31:42;69377.22;;;-146.27;100.00
28797;BME280;24974;54.444;18.560;2023-02-02T06:34:13;69377.22;;;-146.27;100.00
28797;BME280;24974;54.444;18.560;2023-02-02T06:36:44;69377.22;;;-146.27;100.00
28797;BME280;24974;54.444;18.560;2023-02-02T06:39:15;69377.22;;;-146.27;100.00
28797;BME280;24974;54.444;18.560;2023-02-02T06:41:46;69377.22;;;-146.27;100.00
28797;BME280;24974;54.444;18.560;2023-02-02T06:44:17;69377.22;;;-146.27;100.00
28797;BME280;24974;54.444;18.560;2023-02-02T06:46:50;69377.22;;;-146.27;100.00
28797;BME280;24974;54.444;18.560;2023-02-02T06:49:21;69377.22;;;-146.27;100.00
28797;BME280;24974;54.444;18.560;2023-02-02T06:51:52;69377.22;;;-146.27;100.00
28797;BME280;24974;54.444;18.560;2023-02-02T06:54:23;69377.22;;;-146.27;100.00
28797;BME280;24974;54.444;18.560;2023-02-02T06:56:54;69377.22;;;-146.27;100.00
28797;BME280;24974;54.444;18.560;2023-02-02T06:59:25;69377.22;;;-146.27;100.00
28797;BME280;24974;54.444;18.560;2023-02-02T07:01:57;69377.22;;;-146.27;100.00
28797;BME280;24974;54.444;18.560;2023-02-02T07:04:28;69377.22;;;-146.27;100.00
28797;BME280;24974;54.444;18.560;2023-02-02T07:07:01;69377.22;;;-146.27;100.00
28797;BME280;24974;54.444;18.560;2023-02-02T07:09:33;69377.22;;;-146.27;100.00
28797;BME280;24974;54.444;18.560;2023-02-02T07:12:05;69377.22;;;-146.27;100.00
28797;BME280;24974;54.444;18.560;2023-02-02T07:14:36;69377.22;;;-146.27;100.00
28797;BME280;24974;54.444;18.560;2023-02-02T07:17:07;69377.22;;;-146.27;100.00
28797;BME280;24974;54.444;18.560;2023-02-02T07:19:38;69377.22;;;-146.27;100.00
28797;BME280;24974;54.444;18.560;2023-02-02T07:22:09;69377.22;;;-146.27;100.00
28797;BME280;24974;54.444;18.560;2023-02-02T07:24:40;69377.22;;;-146.27;100.00
28797;BME280;24974;54.444;18.560;2023-02-02T07:27:11;69377.22;;;-146.27;100.00
28797;BME280;24974;54.444;18.560;2023-02-02T07:29:44;69377.22;;;-146.27;100.00
28797;BME280;24974;54.444;18.560;2023-02-02T07:32:15;69377.22;;;-146.27;100.00
28797;BME280;24974;54.444;18.560;2023-02-02T07:34:46;69377.22;;;-146.27;100.00
28797;BME280;24974;54.444;18.560;2023-02-02T07:37:17;69377.22;;;-146.27;100.00
28797;BME280;24974;54.444;18.560;2023-02-02T07:39:48;69377.22;;;-146.27;100.00
28797;BME280;24974;54.444;18.560;2023-02-02T07:42:18;69377.22;;;-146.27;100.00
28797;BME280;24974;54.444;18.560;2023-02-02T07:44:51;69377.22;;;-146.27;100.00
28797;BME280;24974;54.444;18.560;2023-02-02T07:47:22;69377.22;;;-146.27;100.00
28797;BME280;24974;54.444;18.560;2023-02-02T07:49:54;69377.22;;;-146.27;100.00
28797;BME280;24974;54.444;18.560;2023-02-02T07:52:28;69377.22;;;-146.27;100.00
28797;BME280;24974;54.444;18.560;2023-02-02T07:54:59;69377.22;;;-146.27;100.00
28797;BME280;24974;54.444;18.560;2023-02-02T07:57:30;69377.22;;;-146.27;100.00
28797;BME280;24974;54.444;18.560;2023-02-02T08:00:01;69377.22;;;-146.27;100.00
28797;BME280;24974;54.444;18.560;2023-02-02T08:02:42;69377.22;;;-146.27;100.00
28797;BME280;24974;54.444;18.560;2023-02-02T08:05:13;69377.22;;;-146.27;100.00
28797;BME280;24974;54.444;18.560;2023-02-02T08:07:45;69377.22;;;-146.27;100.00
28797;BME280;24974;54.444;18.560;2023-02-02T08:10:16;69377.22;;;-146.27;100.00
28797;BME280;24974;54.444;18.560;2023-02-02T08:12:47;69377.22;;;-146.27;100.00
28797;BME280;24974;54.444;18.560;2023-02-02T08:15:18;69377.22;;;-146.27;100.00
28797;BME280;24974;54.444;18.560;2023-02-02T08:17:50;69377.22;;;-146.27;100.00
28797;BME280;24974;54.444;18.560;2023-02-02T08:20:21;69377.22;;;-146.27;100.00
28797;BME280;24974;54.444;18.560;2023-02-02T08:22:52;69377.22;;;-146.27;100.00
28797;BME280;24974;54.444;18.560;2023-02-02T08:25:22;69377.22;;;-146.27;100.00
28797;BME280;24974;54.444;18.560;2023-02-02T08:27:55;69377.22;;;-146.27;100.00
28797;BME280;24974;54.444;18.560;2023-02-02T08:30:31;69377.22;;;-146.27;100.00
28797;BME280;24974;54.444;18.560;2023-02-02T08:33:02;69377.22;;;-146.27;100.00
28797;BME280;24974;54.444;18.560;2023-02-02T08:35:33;69377.22;;;-146.27;100.00
28797;BME280;24974;54.444;18.560;2023-02-02T08:38:04;69377.22;;;-146.27;100.00
28797;BME280;24974;54.444;18.560;2023-02-02T08:40:37;69377.22;;;-146.27;100.00
28797;BME280;24974;54.444;18.560;2023-02-02T08:43:07;69377.22;;;-146.27;100.00
28797;BME280;24974;54.444;18.560;2023-02-02T08:45:41;69377.22;;;-146.27;100.00
28797;BME280;24974;54.444;18.560;2023-02-02T08:48:12;69377.22;;;-146.27;100.00
28797;BME280;24974;54.444;18.560;2023-02-02T08:50:54;69377.22;;;-146.27;100.00
28797;BME280;24974;54.444;18.560;2023-02-02T08:53:26;69377.22;;;-146.27;100.00
28797;BME280;24974;54.444;18.560;2023-02-02T08:58:39;69377.22;;;-146.27;100.00
28797;BME280;24974;54.444;18.560;2023-02-02T09:01:16;69377.22;;;-146.27;100.00
28797;BME280;24974;54.444;18.560;2023-02-02T09:03:47;69377.22;;;-146.27;100.00
28797;BME280;24974;54.444;18.560;2023-02-02T09:06:19;69377.22;;;-146.27;100.00
28797;BME280;24974;54.444;18.560;2023-02-02T09:08:50;69377.22;;;-146.27;100.00
28797;BME280;24974;54.444;18.560;2023-02-02T09:11:21;69377.22;;;-146.27;100.00
28797;BME280;24974;54.444;18.560;2023-02-02T09:13:55;69377.22;;;-146.27;100.00
28797;BME280;24974;54.444;18.560;2023-02-02T09:16:27;69377.22;;;-146.27;100.00
28797;BME280;24974;54.444;18.560;2023-02-02T09:18:58;69377.22;;;-146.27;100.00
28797;BME280;24974;54.444;18.560;2023-02-02T09:21:30;69377.22;;;-146.27;100.00
28797;BME280;24974;54.444;18.560;2023-02-02T09:24:12;69377.22;;;-146.27;100.00
28797;BME280;24974;54.444;18.560;2023-02-02T09:26:44;69377.22;;;-146.27;100.00
28797;BME280;24974;54.444;18.560;2023-02-02T09:29:15;69377.22;;;-146.27;100.00
28797;BME280;24974;54.444;18.560;2023-02-02T09:31:47;69377.22;;;-146.27;100.00
28797;BME280;24974;54.444;18.560;2023-02-02T09:34:18;69377.22;;;-146.27;100.00
28797;BME280;24974;54.444;18.560;2023-02-02T09:36:49;69377.22;;;-146.27;100.00
28797;BME280;24974;54.444;18.560;2023-02-02T09:39:20;69377.22;;;-146.27;100.00
28797;BME280;24974;54.444;18.560;2023-02-02T09:44:57;69377.22;;;-146.27;100.00
28797;BME280;24974;54.444;18.560;2023-02-02T09:48:25;69377.22;;;-146.27;100.00
28797;BME280;24974;54.444;18.560;2023-02-02T09:50:41;69377.22;;;-146.27;100.00
28797;BME280;24974;54.444;18.560;2023-02-02T09:55:50;69377.22;;;-146.27;100.00
28797;BME280;24974;54.444;18.560;2023-02-02T09:58:34;69377.22;;;-146.27;100.00
28797;BME280;24974;54.444;18.560;2023-02-02T10:01:11;69377.22;;;-146.27;100.00
28797;BME280;24974;54.444;18.560;2023-02-02T10:06:37;69377.22;;;-146.27;100.00
28797;BME280;24974;54.444;18.560;2023-02-02T10:12:13;69377.22;;;-146.27;100.00
28797;BME280;24974;54.444;18.560;2023-02-02T10:20:45;69377.22;;;-146.27;100.00
28797;BME280;24974;54.444;18.560;2023-02-02T10:23:39;69377.22;;;-146.27;100.00
28797;BME280;24974;54.444;18.560;2023-02-02T10:26:36;69377.22;;;-146.27;100.00
28797;BME280;24974;54.444;18.560;2023-02-02T10:30:14;69377.22;;;-146.27;100.00
28797;BME280;24974;54.444;18.560;2023-02-02T10:32:25;69377.22;;;-146.27;100.00
28797;BME280;24974;54.444;18.560;2023-02-02T10:38:26;69377.22;;;-146.27;100.00
28797;BME280;24974;54.444;18.560;2023-02-02T10:41:50;69377.22;;;-146.27;100.00
28797;BME280;24974;54.444;18.560;2023-02-02T10:47:22;69377.22;;;-146.27;100.00
28797;BME280;24974;54.444;18.560;2023-02-02T10:52:34;69377.22;;;-146.27;100.00
28797;BME280;24974;54.444;18.560;2023-02-02T10:55:27;69377.22;;;-146.27;100.00
28797;BME280;24974;54.444;18.560;2023-02-02T10:58:06;69377.22;;;-146.27;100.00
28797;BME280;24974;54.444;18.560;2023-02-02T11:00:55;69377.22;;;-146.27;100.00
28797;BME280;24974;54.444;18.560;2023-02-02T11:03:38;69377.22;;;-146.27;100.00
28797;BME280;24974;54.444;18.560;2023-02-02T11:06:10;69377.22;;;-146.27;100.00
28797;BME280;24974;54.444;18.560;2023-02-02T11:09:01;69377.22;;;-146.27;100.00
28797;BME280;24974;54.444;18.560;2023-02-02T11:11:40;69377.22;;;-146.27;100.00
28797;BME280;24974;54.444;18.560;2023-02-02T11:14:15;69377.22;;;-146.27;100.00
28797;BME280;24974;54.444;18.560;2023-02-02T11:16:59;69377.22;;;-146.27;100.00
28797;BME280;24974;54.444;18.560;2023-02-02T11:19:33;69377.22;;;-146.27;100.00
28797;BME280;24974;54.444;18.560;2023-02-02T11:22:04;69377.22;;;-146.27;100.00
28797;BME280;24974;54.444;18.560;2023-02-02T11:24:48;69377.22;;;-146.27;100.00
28797;BME280;24974;54.444;18.560;2023-02-02T11:27:25;69377.22;;;-146.27;100.00
28797;BME280;24974;54.444;18.560;2023-02-02T11:29:58;69377.22;;;-146.27;100.00
28797;BME280;24974;54.444;18.560;2023-02-02T11:32:31;69377.22;;;-146.27;100.00
28797;BME280;24974;54.444;18.560;2023-02-02T11:37:38;69377.22;;;-146.27;100.00
28797;BME280;24974;54.444;18.560;2023-02-02T11:43:00;69377.22;;;-146.27;100.00
28797;BME280;24974;54.444;18.560;2023-02-02T11:45:35;69377.22;;;-146.27;100.00
28797;BME280;24974;54.444;18.560;2023-02-02T11:48:18;69377.22;;;-146.27;100.00
28797;BME280;24974;54.444;18.560;2023-02-02T11:50:52;69377.22;;;-146.27;100.00
28797;BME280;24974;54.444;18.560;2023-02-02T11:56:06;69377.22;;;-146.27;100.00
28797;BME280;24974;54.444;18.560;2023-02-02T11:58:47;69377.22;;;-146.27;100.00
28797;BME280;24974;54.444;18.560;2023-02-02T12:01:27;69377.22;;;-146.27;100.00
28797;BME280;24974;54.444;18.560;2023-02-02T12:04:01;69377.22;;;-146.27;100.00
28797;BME280;24974;54.444;18.560;2023-02-02T12:09:17;69377.22;;;-146.27;100.00
28797;BME280;24974;54.444;18.560;2023-02-02T12:11:58;69377.22;;;-146.27;100.00
28797;BME280;24974;54.444;18.560;2023-02-02T12:34:15;69377.22;;;-146.27;100.00
28797;BME280;24974;54.444;18.560;2023-02-02T12:40:33;69377.22;;;-146.27;100.00
28797;BME280;24974;54.444;18.560;2023-02-02T12:55:40;69377.22;;;-146.27;100.00
28797;BME280;24974;54.444;18.560;2023-02-02T13:07:03;69377.22;;;-146.27;100.00
28797;BME280;24974;54.444;18.560;2023-02-02T13:12:42;69377.22;;;-146.27;100.00
28797;BME280;24974;54.444;18.560;2023-02-02T13:15:23;69377.22;;;-146.27;100.00
28797;BME280;24974;54.444;18.560;2023-02-02T13:17:59;69377.22;;;-146.27;100.00
28797;BME280;24974;54.444;18.560;2023-02-02T13:20:53;100793.47;;;7.00;60.71
28797;BME280;24974;54.444;18.560;2023-02-02T13:23:29;100803.44;;;6.76;61.68
28797;BME280;24974;54.444;18.560;2023-02-02T13:26:03;100801.94;;;7.72;60.06
28797;BME280;24974;54.444;18.560;2023-02-02T13:40:00;100845.53;;;6.75;62.86
28797;BME280;24974;54.444;18.560;2023-02-02T14:00:55;100900.50;;;6.38;61.63
28797;BME280;24974;54.444;18.560;2023-02-02T14:08:44;100920.31;;;6.84;60.98
28797;BME280;24974;54.444;18.560;2023-02-02T14:11:29;100932.41;;;6.63;61.08
28797;BME280;24974;54.444;18.560;2023-02-02T14:14:20;100943.91;;;6.44;59.74
28797;BME280;24974;54.444;18.560;2023-02-02T14:20:08;100952.19;;;7.14;58.56
28797;BME280;24974;54.444;18.560;2023-02-02T14:22:55;100974.41;;;6.87;59.37
28797;BME280;24974;54.444;18.560;2023-02-02T14:28:09;100989.50;;;6.39;61.06
28797;BME280;24974;54.444;18.560;2023-02-02T14:30:40;100984.69;;;7.11;59.48
28797;BME280;24974;54.444;18.560;2023-02-02T14:33:25;100998.44;;;5.83;62.40
28797;BME280;24974;54.444;18.560;2023-02-02T14:36:13;101005.59;;;6.30;60.84
28797;BME280;24974;54.444;18.560;2023-02-02T14:39:03;101017.91;;;6.38;61.04
28797;BME280;24974;54.444;18.560;2023-02-02T14:42:16;101024.72;;;6.45;60.42
28797;BME280;24974;54.444;18.560;2023-02-02T14:45:42;101025.53;;;6.10;61.33
28797;BME280;24974;54.444;18.560;2023-02-02T14:48:21;101048.53;;;5.52;62.10
28797;BME280;24974;54.444;18.560;2023-02-02T14:50:55;101056.69;;;5.52;62.47
28797;BME280;24974;54.444;18.560;2023-02-02T14:53:35;101051.94;;;5.89;62.32
28797;BME280;24974;54.444;18.560;2023-02-02T14:56:11;101053.34;;;6.07;61.76
28797;BME280;24974;54.444;18.560;2023-02-02T14:58:54;101071.09;;;5.37;63.31
28797;BME280;24974;54.444;18.560;2023-02-02T15:01:33;101069.75;;;5.40;63.14
28797;BME280;24974;54.444;18.560;2023-02-02T15:04:26;101084.44;;;6.01;62.01
28797;BME280;24974;54.444;18.560;2023-02-02T15:09:54;101100.97;;;5.17;64.04
28797;BME280;24974;54.444;18.560;2023-02-02T15:12:32;101106.31;;;5.49;63.31
28797;BME280;24974;54.444;18.560;2023-02-02T15:20:51;101128.25;;;5.74;62.42
28797;BME280;24974;54.444;18.560;2023-02-02T15:26:27;101146.16;;;5.55;63.21
28797;BME280;24974;54.444;18.560;2023-02-02T15:31:56;101147.41;;;5.37;63.98
28797;BME280;24974;54.444;18.560;2023-02-02T15:34:39;101167.72;;;5.19;63.52
28797;BME280;24974;54.444;18.560;2023-02-02T15:37:23;101172.34;;;5.14;63.99
28797;BME280;24974;54.444;18.560;2023-02-02T15:39:57;101174.94;;;4.98;64.16
28797;BME280;24974;54.444;18.560;2023-02-02T15:42:44;101187.50;;;5.04;64.24
28797;BME280;24974;54.444;18.560;2023-02-02T15:45:33;101195.66;;;4.72;64.76
28797;BME280;24974;54.444;18.560;2023-02-02T15:48:28;101200.53;;;5.34;63.41
28797;BME280;24974;54.444;18.560;2023-02-02T15:51:04;101218.84;;;5.44;62.71
28797;BME280;24974;54.444;18.560;2023-02-02T15:56:39;101234.53;;;4.90;63.75
28797;BME280;24974;54.444;18.560;2023-02-02T15:59:17;101236.97;;;4.91;64.00
28797;BME280;24974;54.444;18.560;2023-02-02T16:04:42;101249.88;;;5.33;62.88
28797;BME280;24974;54.444;18.560;2023-02-02T16:07:17;101247.56;;;4.88;63.42
28797;BME280;24974;54.444;18.560;2023-02-02T16:09:49;101252.41;;;5.13;62.98
28797;BME280;24974;54.444;18.560;2023-02-02T16:12:21;101264.41;;;4.85;64.47
28797;BME280;24974;54.444;18.560;2023-02-02T16:14:53;101272.78;;;4.78;65.25
28797;BME280;24974;54.444;18.560;2023-02-02T16:17:29;101273.44;;;5.17;63.82
28797;BME280;24974;54.444;18.560;2023-02-02T16:20:03;101270.72;;;5.17;64.26
28797;BME280;24974;54.444;18.560;2023-02-02T16:22:38;101288.00;;;4.74;64.19
28797;BME280;24974;54.444;18.560;2023-02-02T16:25:16;101285.59;;;5.37;62.41
28797;BME280;24974;54.444;18.560;2023-02-02T16:27:48;101293.25;;;5.77;61.70
28797;BME280;24974;54.444;18.560;2023-02-02T16:30:27;101304.34;;;5.01;63.69
28797;BME280;24974;54.444;18.560;2023-02-02T16:36:24;101321.78;;;5.00;63.17
28797;BME280;24974;54.444;18.560;2023-02-02T16:38:56;101331.06;;;4.77;63.81
28797;BME280;24974;54.444;18.560;2023-02-02T16:41:34;101323.56;;;4.89;63.55
28797;BME280;24974;54.444;18.560;2023-02-02T16:44:27;101337.56;;;4.98;63.52
28797;BME280;24974;54.444;18.560;2023-02-02T16:46:59;101327.81;;;5.34;62.54
28797;BME280;24974;54.444;18.560;2023-02-02T16:49:34;101336.41;;;5.21;63.02
28797;BME280;24974;54.444;18.560;2023-02-02T16:52:20;101340.50;;;5.50;61.94
28797;BME280;24974;54.444;18.560;2023-02-02T16:54:54;101340.34;;;5.67;61.38
28797;BME280;24974;54.444;18.560;2023-02-02T16:57:28;101356.59;;;5.52;61.89
28797;BME280;24974;54.444;18.560;2023-02-02T17:00:05;101357.25;;;5.32;62.81
28797;BME280;24974;54.444;18.560;2023-02-02T17:02:39;101353.56;;;5.80;61.69
28797;BME280;24974;54.444;18.560;2023-02-02T17:05:24;101359.00;;;6.12;60.63
28797;BME280;24974;54.444;18.560;2023-02-02T17:08:00;101361.75;;;4.94;63.11
28797;BME280;24974;54.444;18.560;2023-02-02T17:10:35;101372.75;;;5.04;62.42
28797;BME280;24974;54.444;18.560;2023-02-02T17:16:03;101381.81;;;5.10;61.30
28797;BME280;24974;54.444;18.560;2023-02-02T17:18:33;101393.22;;;5.07;61.79
28797;BME280;24974;54.444;18.560;2023-02-02T17:21:05;101396.25;;;4.89;62.09
28797;BME280;24974;54.444;18.560;2023-02-02T17:23:37;101393.28;;;5.39;60.78
28797;BME280;24974;54.444;18.560;2023-02-02T17:26:10;101406.22;;;5.00;61.35
28797;BME280;24974;54.444;18.560;2023-02-02T17:28:42;101413.09;;;4.64;62.38
28797;BME280;24974;54.444;18.560;2023-02-02T17:31:14;101411.88;;;5.20;61.11
28797;BME280;24974;54.444;18.560;2023-02-02T17:33:45;101423.28;;;4.90;60.98
28797;BME280;24974;54.444;18.560;2023-02-02T17:36:16;101427.94;;;5.17;60.78
28797;BME280;24974;54.444;18.560;2023-02-02T17:38:48;101433.56;;;5.10;60.57
28797;BME280;24974;54.444;18.560;2023-02-02T17:41:19;101438.56;;;4.53;61.85
28797;BME280;24974;54.444;18.560;2023-02-02T17:43:50;101443.41;;;4.89;60.53
28797;BME280;24974;54.444;18.560;2023-02-02T17:46:20;101446.53;;;4.59;61.60
28797;BME280;24974;54.444;18.560;2023-02-02T17:48:51;101458.38;;;4.70;61.64
28797;BME280;24974;54.444;18.560;2023-02-02T17:51:22;101478.25;;;4.32;61.91
28797;BME280;24974;54.444;18.560;2023-02-02T17:53:53;101476.31;;;4.49;60.95
28797;BME280;24974;54.444;18.560;2023-02-02T17:56:27;101482.03;;;3.97;61.82
28797;BME280;24974;54.444;18.560;2023-02-02T17:58:58;101485.72;;;5.19;59.19
28797;BME280;24974;54.444;18.560;2023-02-02T18:01:29;101493.78;;;5.09;59.39
28797;BME280;24974;54.444;18.560;2023-02-02T18:04:00;101499.75;;;4.89;59.68
28797;BME280;24974;54.444;18.560;2023-02-02T18:06:31;101501.97;;;4.53;61.06
28797;BME280;24974;54.444;18.560;2023-02-02T18:09:02;101505.41;;;4.82;59.91
28797;BME280;24974;54.444;18.560;2023-02-02T18:11:33;101513.84;;;4.64;61.06
28797;BME280;24974;54.444;18.560;2023-02-02T18:14:04;101525.31;;;4.32;61.69
28797;BME280;24974;54.444;18.560;2023-02-02T18:16:35;101524.94;;;4.57;60.82
28797;BME280;24974;54.444;18.560;2023-02-02T18:19:06;101526.66;;;5.02;59.05
28797;BME280;24974;54.444;18.560;2023-02-02T18:21:41;101528.53;;;4.63;60.09
28797;BME280;24974;54.444;18.560;2023-02-02T18:24:12;101532.53;;;4.94;59.01
28797;BME280;24974;54.444;18.560;2023-02-02T18:26:45;101542.03;;;4.91;58.61
28797;BME280;24974;54.444;18.560;2023-02-02T18:29:16;101538.44;;;4.69;58.46
28797;BME280;24974;54.444;18.560;2023-02-02T18:31:47;101537.28;;;4.82;58.02
28797;BME280;24974;54.444;18.560;2023-02-02T18:34:18;101543.31;;;5.05;57.29
28797;BME280;24974;54.444;18.560;2023-02-02T18:36:49;101540.75;;;5.38;56.50
28797;BME280;24974;54.444;18.560;2023-02-02T18:39:20;101534.81;;;4.46;57.76
28797;BME280;24974;54.444;18.560;2023-02-02T18:41:50;101542.63;;;4.76;56.92
28797;BME280;24974;54.444;18.560;2023-02-02T18:44:21;101550.22;;;4.41;57.26
28797;BME280;24974;54.444;18.560;2023-02-02T18:46:57;101549.81;;;4.83;55.83
28797;BME280;24974;54.444;18.560;2023-02-02T18:49:28;101558.91;;;4.55;56.48
28797;BME280;24974;54.444;18.560;2023-02-02T18:52:00;101563.94;;;4.46;56.53
28797;BME280;24974;54.444;18.560;2023-02-02T18:54:32;101570.69;;;4.77;54.97
28797;BME280;24974;54.444;18.560;2023-02-02T18:57:06;101567.97;;;4.43;55.72
28797;BME280;24974;54.444;18.560;2023-02-02T18:59:37;101571.09;;;4.35;56.21
28797;BME280;24974;54.444;18.560;2023-02-02T19:02:17;101573.72;;;4.30;55.73
28797;BME280;24974;54.444;18.560;2023-02-02T19:04:48;101569.44;;;4.85;54.20
28797;BME280;24974;54.444;18.560;2023-02-02T19:07:37;101573.91;;;4.74;53.98
28797;BME280;24974;54.444;18.560;2023-02-02T19:10:25;101577.28;;;4.98;53.30
28797;BME280;24974;54.444;18.560;2023-02-02T19:13:17;101577.69;;;4.56;53.76
28797;BME280;24974;54.444;18.560;2023-02-02T19:15:49;101580.34;;;4.85;53.48
28797;BME280;24974;54.444;18.560;2023-02-02T19:18:22;101576.22;;;4.82;52.31
28797;BME280;24974;54.444;18.560;2023-02-02T19:20:53;101582.25;;;5.23;52.17
28797;BME280;24974;54.444;18.560;2023-02-02T19:23:28;101577.88;;;4.66;52.38
28797;BME280;24974;54.444;18.560;2023-02-02T19:29:09;101578.28;;;4.58;52.05
28797;BME280;24974;54.444;18.560;2023-02-02T19:31:42;101585.63;;;5.30;51.26
28797;BME280;24974;54.444;18.560;2023-02-02T19:34:18;101587.78;;;4.89;51.78
28797;BME280;24974;54.444;18.560;2023-02-02T19:36:50;101590.22;;;4.40;52.71
28797;BME280;24974;54.444;18.560;2023-02-02T19:39:26;101589.53;;;4.16;52.75
28797;BME280;24974;54.444;18.560;2023-02-02T19:42:00;101587.59;;;4.62;51.90
28797;BME280;24974;54.444;18.560;2023-02-02T19:44:33;101605.56;;;5.14;51.05
28797;BME280;24974;54.444;18.560;2023-02-02T19:47:19;101599.22;;;4.91;50.73
28797;BME280;24974;54.444;18.560;2023-02-02T19:49:54;101603.28;;;4.72;51.32
28797;BME280;24974;54.444;18.560;2023-02-02T19:52:26;101603.59;;;3.97;52.20
28797;BME280;24974;54.444;18.560;2023-02-02T19:54:57;101611.69;;;3.40;53.71
28797;BME280;24974;54.444;18.560;2023-02-02T19:57:34;101597.91;;;4.60;51.86
28797;BME280;24974;54.444;18.560;2023-02-02T20:00:22;101602.66;;;3.91;52.39
28797;BME280;24974;54.444;18.560;2023-02-02T20:02:59;101609.19;;;4.18;52.12
28797;BME280;24974;54.444;18.560;2023-02-02T20:05:33;101600.88;;;4.25;51.94
28797;BME280;24974;54.444;18.560;2023-02-02T20:08:05;101608.31;;;5.57;50.06
28797;BME280;24974;54.444;18.560;2023-02-02T20:10:39;101616.16;;;4.14;52.02
28797;BME280;24974;54.444;18.560;2023-02-02T20:16:22;101637.47;;;4.17;52.07
28797;BME280;24974;54.444;18.560;2023-02-02T20:18:57;101633.63;;;4.81;51.00
28797;BME280;24974;54.444;18.560;2023-02-02T20:21:37;101636.47;;;3.95;52.16
28797;BME280;24974;54.444;18.560;2023-02-02T20:24:15;101624.47;;;4.36;51.63
28797;BME280;24974;54.444;18.560;2023-02-02T20:26:47;101624.47;;;4.87;50.48
28797;BME280;24974;54.444;18.560;2023-02-02T20:29:36;101634.78;;;5.01;49.99
28797;BME280;24974;54.444;18.560;2023-02-02T20:32:18;101642.00;;;4.57;51.22
28797;BME280;24974;54.444;18.560;2023-02-02T20:34:55;101637.09;;;5.10;49.82
28797;BME280;24974;54.444;18.560;2023-02-02T20:37:30;101632.81;;;4.80;51.23
28797;BME280;24974;54.444;18.560;2023-02-02T20:40:25;101645.25;;;5.26;49.97
28797;BME280;24974;54.444;18.560;2023-02-02T20:42:57;101636.03;;;5.49;50.12
28797;BME280;24974;54.444;18.560;2023-02-02T20:45:28;101630.00;;;5.09;50.49
28797;BME280;24974;54.444;18.560;2023-02-02T20:48:00;101629.88;;;5.81;49.10
28797;BME280;24974;54.444;18.560;2023-02-02T20:50:31;101623.66;;;4.69;51.79
28797;BME280;24974;54.444;18.560;2023-02-02T20:53:03;101633.84;;;5.29;50.35
28797;BME280;24974;54.444;18.560;2023-02-02T20:55:34;101642.41;;;4.83;51.51
28797;BME280;24974;54.444;18.560;2023-02-02T20:58:06;101655.28;;;5.43;50.38
28797;BME280;24974;54.444;18.560;2023-02-02T21:00:39;101658.13;;;5.70;50.18
28797;BME280;24974;54.444;18.560;2023-02-02T21:03:11;101664.25;;;4.88;51.64
28797;BME280;24974;54.444;18.560;2023-02-02T21:05:43;101674.31;;;4.87;51.79